< < Back
Terminal Aerodrome Forecast


Current Version              Previous Versions:   1  2  3  4  5  6  7  8  9  

Terminal Aerodrome Forecast

784
FTUS42 KFFC 260528
TAFMCN
TAF
KMCN 260528Z 2606/2706 23007KT P6SM BKN060
     FM260900 26006KT P6SM SCT025 BKN050
     FM261200 29008KT P6SM BKN025
     FM261500 30012G20KT P6SM BKN040
     FM261900 30014G24KT P6SM SCT050
     FM270000 31010KT P6SM FEW100 SCT250=

Latest METAR

184
SAUS80 KWBC 260600 RRD
MTRMCN
METAR KMCN 260553Z AUTO 25008KT 10SM CLR 10/05 A2977 RMK AO2 SLP080
T01000050 10117 20072 58005 TSNO


USA.gov is the U.S. government's official web portal to all federal, state and local government web resources and services.